createdAt,value
2022-12-09T00:01:13.499Z,19.63
2022-12-09T00:03:41.177Z,19.93
2022-12-09T00:06:23.482Z,20.77
2022-12-09T00:08:51.282Z,20.80
2022-12-09T00:11:20.321Z,21.37
2022-12-09T00:13:52.351Z,21.77
2022-12-09T00:16:20.376Z,20.83
2022-12-09T00:18:47.979Z,20.13
2022-12-09T00:21:19.827Z,21.13
2022-12-09T00:23:47.600Z,20.20
2022-12-09T00:26:15.420Z,20.57
2022-12-09T00:28:43.160Z,20.90
2022-12-09T00:31:14.261Z,21.37
2022-12-09T00:33:41.626Z,21.60
2022-12-09T00:36:16.162Z,21.00
2022-12-09T00:38:43.950Z,21.07
2022-12-09T00:41:11.816Z,21.13
2022-12-09T00:43:39.186Z,23.40
2022-12-09T00:46:06.618Z,22.93
2022-12-09T00:48:40.284Z,22.70
2022-12-09T00:51:08.808Z,23.80
2022-12-09T00:53:35.891Z,23.77
2022-12-09T00:56:03.243Z,23.77
2022-12-09T00:58:30.311Z,24.03
2022-12-09T01:00:57.580Z,23.67
2022-12-09T01:03:25.195Z,24.23
2022-12-09T01:05:52.588Z,23.97
2022-12-09T01:08:19.823Z,23.67
2022-12-09T01:10:47.754Z,23.43
2022-12-09T01:13:15.872Z,23.63
2022-12-09T01:15:43.310Z,24.40
2022-12-09T01:18:12.224Z,24.43
2022-12-09T01:20:39.524Z,26.40
2022-12-09T01:23:06.609Z,27.37
2022-12-09T01:25:33.712Z,27.30
2022-12-09T01:28:01.045Z,29.60
2022-12-09T01:30:28.431Z,28.37
2022-12-09T01:32:55.550Z,32.87
2022-12-09T01:35:22.897Z,35.87
2022-12-09T01:37:50.151Z,37.87
2022-12-09T01:40:19.074Z,37.37
2022-12-09T01:42:46.432Z,39.20
2022-12-09T01:45:22.451Z,39.77
2022-12-09T01:47:57.260Z,39.93
2022-12-09T01:50:26.635Z,41.90
2022-12-09T01:52:55.756Z,42.63
2022-12-09T01:55:25.228Z,43.37
2022-12-09T01:57:53.119Z,43.30
2022-12-09T02:00:21.606Z,41.83
2022-12-09T02:02:52.301Z,42.73
2022-12-09T02:05:21.270Z,41.73
2022-12-09T02:07:54.416Z,41.63
2022-12-09T02:10:22.106Z,41.07
2022-12-09T02:13:25.061Z,41.87
2022-12-09T02:15:59.100Z,41.33
2022-12-09T02:18:42.281Z,40.57
2022-12-09T02:21:19.203Z,37.70
2022-12-09T02:24:04.292Z,37.90
2022-12-09T02:26:41.939Z,38.20
2022-12-09T02:29:51.153Z,37.43
2022-12-09T02:32:27.333Z,36.57
2022-12-09T02:35:10.203Z,38.57
2022-12-09T02:38:10.700Z,37.77
2022-12-09T02:41:06.972Z,34.93
2022-12-09T02:43:48.063Z,33.33
2022-12-09T02:46:21.083Z,35.40
2022-12-09T02:48:53.525Z,35.03
2022-12-09T02:51:22.842Z,37.00
2022-12-09T02:53:54.893Z,38.37
2022-12-09T02:56:24.293Z,38.80
2022-12-09T02:58:51.616Z,40.87
2022-12-09T03:01:36.874Z,43.40
2022-12-09T03:04:07.265Z,42.90
2022-12-09T03:06:43.272Z,48.37
2022-12-09T03:09:16.016Z,52.43
2022-12-09T03:11:43.832Z,53.67
2022-12-09T03:14:16.549Z,53.60
2022-12-09T03:17:07.331Z,53.07
2022-12-09T03:19:45.904Z,52.77
2022-12-09T03:22:17.339Z,47.93
2022-12-09T03:25:27.700Z,49.33
2022-12-09T03:28:02.969Z,47.47
2022-12-09T03:30:37.855Z,47.53
2022-12-09T03:33:05.457Z,48.90
2022-12-09T03:35:58.182Z,49.00
2022-12-09T03:38:29.382Z,46.50
2022-12-09T03:41:16.692Z,45.80
2022-12-09T03:43:52.333Z,45.17
2022-12-09T03:46:22.142Z,45.90
2022-12-09T03:48:50.032Z,46.37
2022-12-09T03:51:38.337Z,45.70
2022-12-09T03:54:40.827Z,45.23
2022-12-09T03:57:17.002Z,44.20
2022-12-09T03:59:51.498Z,45.07
2022-12-09T04:02:18.948Z,47.33
2022-12-09T04:04:46.157Z,48.00
2022-12-09T04:07:13.528Z,46.73
2022-12-09T04:09:42.107Z,47.17
2022-12-09T04:12:09.613Z,49.07
2022-12-09T04:14:37.069Z,47.07
2022-12-09T04:17:04.124Z,48.13
2022-12-09T04:19:31.355Z,46.30
2022-12-09T04:22:00.221Z,45.90
2022-12-09T04:24:27.508Z,46.83
2022-12-09T04:26:54.661Z,49.63
2022-12-09T04:29:21.823Z,50.10
2022-12-09T04:31:48.865Z,53.27
2022-12-09T04:34:16.264Z,55.40
2022-12-09T04:36:43.198Z,54.43
2022-12-09T04:39:10.646Z,55.83
2022-12-09T04:41:37.711Z,56.33
2022-12-09T04:44:05.622Z,53.70
2022-12-09T04:46:33.207Z,51.60
2022-12-09T04:49:00.647Z,53.23
2022-12-09T04:51:28.036Z,52.67
2022-12-09T04:53:55.157Z,54.83
2022-12-09T04:56:23.007Z,54.90
2022-12-09T04:58:50.718Z,57.27
2022-12-09T05:01:24.962Z,57.33
2022-12-09T05:03:57.135Z,51.80
2022-12-09T05:06:25.236Z,51.80
2022-12-09T05:08:52.766Z,50.67
2022-12-09T05:11:20.990Z,51.43
2022-12-09T05:13:48.583Z,50.27
2022-12-09T05:16:17.730Z,51.43
2022-12-09T05:18:46.616Z,51.50
2022-12-09T05:21:16.770Z,52.33
2022-12-09T05:23:44.420Z,54.43
2022-12-09T05:26:14.568Z,53.37
2022-12-09T05:28:41.765Z,55.37
2022-12-09T05:31:13.300Z,55.50
2022-12-09T05:33:41.426Z,56.20
2022-12-09T05:36:13.168Z,55.73
2022-12-09T05:38:41.142Z,56.30
2022-12-09T05:41:08.803Z,54.73
2022-12-09T05:43:37.613Z,56.07
2022-12-09T05:46:06.717Z,56.00
2022-12-09T05:48:34.539Z,56.33
2022-12-09T05:51:08.049Z,57.87
2022-12-09T05:53:36.302Z,56.60
2022-12-09T05:56:04.996Z,56.90
2022-12-09T05:58:32.153Z,56.43
2022-12-09T06:01:09.519Z,59.87
2022-12-09T06:03:37.685Z,57.10
2022-12-09T06:06:16.751Z,57.97
2022-12-09T06:08:45.876Z,55.57
2022-12-09T06:11:16.398Z,56.40
2022-12-09T06:13:44.743Z,55.00
2022-12-09T06:16:13.090Z,53.93
2022-12-09T06:18:40.940Z,54.30
2022-12-09T06:21:10.798Z,53.30
2022-12-09T06:23:41.371Z,53.57
2022-12-09T06:26:14.884Z,54.30
2022-12-09T06:28:42.261Z,52.83
2022-12-09T06:31:09.583Z,53.50
2022-12-09T06:33:54.046Z,54.00
2022-12-09T06:36:23.526Z,55.63
2022-12-09T06:38:50.769Z,54.50
2022-12-09T06:41:17.967Z,54.77
2022-12-09T06:43:45.461Z,53.17
2022-12-09T06:46:14.632Z,55.80
2022-12-09T06:48:42.725Z,59.47
2022-12-09T06:51:10.465Z,56.90
2022-12-09T06:53:37.927Z,59.37
2022-12-09T06:56:11.862Z,58.17
2022-12-09T06:58:41.650Z,55.13
2022-12-09T07:01:15.775Z,53.67
2022-12-09T07:03:45.813Z,52.93
2022-12-09T07:06:40.259Z,53.27
2022-12-09T07:09:19.923Z,49.90
2022-12-09T07:11:48.259Z,50.13
2022-12-09T07:14:17.011Z,51.87
2022-12-09T07:16:44.579Z,51.40
2022-12-09T07:19:20.375Z,52.10
2022-12-09T07:21:48.773Z,51.97
2022-12-09T07:24:16.200Z,53.70
2022-12-09T07:26:43.379Z,42.53
2022-12-09T07:29:10.654Z,45.13
2022-12-09T07:31:38.276Z,44.20
2022-12-09T07:34:06.344Z,36.83
2022-12-09T07:36:35.314Z,32.07
2022-12-09T07:39:06.992Z,32.40
2022-12-09T07:41:34.544Z,30.63
2022-12-09T07:44:01.953Z,29.17
2022-12-09T07:46:29.315Z,28.30
2022-12-09T07:48:57.805Z,28.63
2022-12-09T07:51:25.987Z,29.20
2022-12-09T07:53:54.068Z,28.65
2022-12-09T07:56:23.238Z,28.42
2022-12-09T07:58:53.378Z,30.08
2022-12-09T08:01:26.744Z,30.95
2022-12-09T08:03:55.675Z,29.75
2022-12-09T08:06:25.965Z,33.75
2022-12-09T08:08:54.773Z,36.95
2022-12-09T08:11:24.566Z,33.22
2022-12-09T08:13:53.095Z,31.08
2022-12-09T08:16:22.012Z,32.10
2022-12-09T08:18:50.829Z,32.85
2022-12-09T08:21:29.988Z,33.33
2022-12-09T08:23:59.844Z,36.50
2022-12-09T08:26:31.453Z,37.60
2022-12-09T08:28:59.865Z,39.17
2022-12-09T08:31:28.437Z,39.67
2022-12-09T08:33:56.747Z,43.08
2022-12-09T08:36:27.383Z,42.38
2022-12-09T08:38:55.433Z,43.38
2022-12-09T08:41:35.823Z,42.25
2022-12-09T08:44:09.685Z,41.53
2022-12-09T08:46:39.294Z,40.00
2022-12-09T08:49:08.331Z,41.00
2022-12-09T08:51:36.567Z,42.58
2022-12-09T08:54:04.974Z,42.35
2022-12-09T08:56:32.222Z,42.72
2022-12-09T08:58:59.622Z,41.85
2022-12-09T09:01:36.087Z,41.78
2022-12-09T09:04:10.505Z,41.33
2022-12-09T09:06:39.657Z,42.50
2022-12-09T09:09:09.484Z,42.85
2022-12-09T09:11:37.486Z,45.13
2022-12-09T09:14:06.817Z,43.53
2022-12-09T09:16:34.900Z,42.75
2022-12-09T09:19:05.955Z,43.85
2022-12-09T09:21:34.639Z,44.03
2022-12-09T09:24:02.486Z,43.67
2022-12-09T09:26:30.440Z,43.03
2022-12-09T09:28:58.000Z,42.70
2022-12-09T09:31:26.295Z,41.80
2022-12-09T09:33:54.155Z,40.85
2022-12-09T09:36:24.570Z,40.35
2022-12-09T09:38:55.054Z,41.58
2022-12-09T09:41:28.650Z,40.85
2022-12-09T09:43:57.422Z,39.33
2022-12-09T09:46:39.718Z,38.90
2022-12-09T09:49:12.604Z,38.17
2022-12-09T09:51:40.766Z,33.85
2022-12-09T09:54:13.201Z,33.90
2022-12-09T09:56:55.127Z,33.60
2022-12-09T09:59:35.016Z,31.10
2022-12-09T10:02:16.560Z,32.60
2022-12-09T10:04:59.178Z,30.55
2022-12-09T10:07:41.027Z,31.15
2022-12-09T10:10:22.094Z,31.77
2022-12-09T10:13:08.121Z,33.30
2022-12-09T10:16:14.207Z,33.97
2022-12-09T10:19:09.301Z,33.72
2022-12-09T10:21:42.490Z,35.47
2022-12-09T10:24:24.088Z,36.80
2022-12-09T10:27:18.060Z,36.38
2022-12-09T10:30:02.590Z,35.30
2022-12-09T10:32:33.446Z,33.15
2022-12-09T10:35:02.299Z,32.05
2022-12-09T10:37:36.133Z,33.35
2022-12-09T10:40:16.523Z,34.22
2022-12-09T10:43:07.212Z,31.70
2022-12-09T10:46:15.882Z,28.08
2022-12-09T10:48:43.032Z,28.73
2022-12-09T10:51:17.912Z,25.90
2022-12-09T10:53:45.488Z,25.15
2022-12-09T10:56:37.845Z,25.55
2022-12-09T10:59:09.669Z,23.95
2022-12-09T11:01:56.705Z,22.73
2022-12-09T11:04:34.956Z,22.35
2022-12-09T11:07:26.112Z,23.83
2022-12-09T11:10:00.766Z,23.92
2022-12-09T11:12:33.460Z,23.73
2022-12-09T11:15:11.757Z,24.23
2022-12-09T11:17:43.089Z,25.25
2022-12-09T11:20:25.649Z,24.35
2022-12-09T11:23:12.335Z,23.20
2022-12-09T11:26:01.789Z,21.52
2022-12-09T11:28:40.278Z,21.73
2022-12-09T11:31:33.555Z,22.00
2022-12-09T11:34:16.239Z,21.08
2022-12-09T11:36:49.138Z,21.55
2022-12-09T11:39:23.269Z,23.05
2022-12-09T11:42:17.686Z,22.15
2022-12-09T11:44:53.460Z,20.77
2022-12-09T11:48:24.113Z,21.30
2022-12-09T11:50:42.452Z,22.42
2022-12-09T11:53:12.642Z,22.85
2022-12-09T11:55:49.948Z,22.10
2022-12-09T11:58:46.159Z,22.27
2022-12-09T12:01:21.077Z,22.83
2022-12-09T12:04:01.701Z,22.10
2022-12-09T12:07:14.665Z,21.35
2022-12-09T12:09:58.701Z,21.85
2022-12-09T12:12:42.724Z,22.15
2022-12-09T12:15:59.494Z,21.10
2022-12-09T12:18:31.179Z,18.65
2022-12-09T12:21:04.820Z,18.45
2022-12-09T12:23:50.443Z,18.77
2022-12-09T12:26:26.462Z,18.48
2022-12-09T12:29:09.212Z,18.95
2022-12-09T12:32:13.576Z,18.20
2022-12-09T12:34:57.499Z,17.40
2022-12-09T12:37:36.108Z,16.13
2022-12-09T12:40:26.801Z,16.42
2022-12-09T12:43:39.867Z,15.43
2022-12-09T12:46:19.236Z,12.65
2022-12-09T12:49:22.107Z,14.27
2022-12-09T12:51:54.200Z,13.93
2022-12-09T12:54:44.463Z,15.98
2022-12-09T12:57:29.429Z,16.42
2022-12-09T13:00:04.119Z,15.70
2022-12-09T13:03:16.040Z,17.67
2022-12-09T13:05:47.931Z,16.75
2022-12-09T13:08:37.623Z,16.37
2022-12-09T13:11:23.708Z,17.33
2022-12-09T13:14:01.572Z,17.63
2022-12-09T13:16:35.440Z,17.40
2022-12-09T13:19:16.545Z,15.87
2022-12-09T13:21:45.579Z,16.83
2022-12-09T13:24:40.455Z,15.70
2022-12-09T13:27:38.923Z,16.77
2022-12-09T13:30:23.099Z,17.10
2022-12-09T13:33:25.508Z,18.50
2022-12-09T13:36:06.300Z,19.17
2022-12-09T13:38:42.542Z,19.77
2022-12-09T13:41:27.799Z,19.40
2022-12-09T13:43:56.230Z,18.93
2022-12-09T13:46:25.078Z,18.53
2022-12-09T13:48:53.661Z,17.30
2022-12-09T13:51:22.292Z,19.27
2022-12-09T13:54:01.635Z,19.03
2022-12-09T13:56:33.278Z,18.40
2022-12-09T13:59:11.590Z,17.40
2022-12-09T14:01:44.108Z,17.20
2022-12-09T14:04:21.353Z,16.37
2022-12-09T14:06:57.925Z,16.87
2022-12-09T14:09:30.743Z,17.90
2022-12-09T14:12:00.578Z,18.30
2022-12-09T14:14:27.752Z,18.43
2022-12-09T14:16:56.923Z,17.80
2022-12-09T14:19:27.341Z,18.60
2022-12-09T14:22:22.598Z,18.90
2022-12-09T14:24:53.847Z,18.80
2022-12-09T14:27:27.453Z,18.37
2022-12-09T14:30:00.195Z,18.70
2022-12-09T14:32:31.330Z,17.87
2022-12-09T14:35:20.432Z,18.23
2022-12-09T14:38:27.691Z,16.97
2022-12-09T14:41:22.068Z,15.80
2022-12-09T14:44:18.853Z,16.47
2022-12-09T14:46:51.096Z,16.07
2022-12-09T14:49:27.549Z,15.40
2022-12-09T14:52:11.287Z,16.50
2022-12-09T14:54:43.666Z,15.33
2022-12-09T14:57:44.150Z,15.90
2022-12-09T15:00:36.756Z,16.47
2022-12-09T15:03:32.091Z,16.97
2022-12-09T15:06:06.212Z,15.83
2022-12-09T15:08:38.153Z,16.13
2022-12-09T15:11:08.561Z,15.60
2022-12-09T15:13:37.799Z,15.83
2022-12-09T15:16:11.279Z,14.87
2022-12-09T15:18:41.026Z,15.50
2022-12-09T15:21:08.483Z,14.40
2022-12-09T15:23:43.600Z,14.40
2022-12-09T15:26:32.452Z,14.57
2022-12-09T15:29:01.448Z,15.17
2022-12-09T15:31:30.803Z,15.30
2022-12-09T15:34:11.179Z,14.83
2022-12-09T15:36:41.604Z,15.47
2022-12-09T15:39:18.112Z,15.53
2022-12-09T15:42:06.539Z,15.47
2022-12-09T15:45:03.560Z,16.53
2022-12-09T15:47:53.739Z,16.50
2022-12-09T15:50:33.287Z,17.27
2022-12-09T15:53:14.033Z,18.33
2022-12-09T15:56:04.139Z,17.60
2022-12-09T15:58:38.701Z,17.60
2022-12-09T16:01:06.142Z,18.90
2022-12-09T16:03:35.310Z,17.70
2022-12-09T16:06:08.351Z,18.33
2022-12-09T16:08:44.759Z,19.13
2022-12-09T16:11:12.196Z,19.20
2022-12-09T16:14:01.278Z,18.87
2022-12-09T16:16:54.842Z,19.43
2022-12-09T16:19:38.801Z,21.57
2022-12-09T16:22:15.951Z,22.00
2022-12-09T16:25:16.311Z,21.40
2022-12-09T16:27:46.075Z,22.70
2022-12-09T16:30:16.910Z,24.93
2022-12-09T16:32:51.229Z,24.80
2022-12-09T16:35:23.645Z,24.57
2022-12-09T16:37:56.596Z,24.87
2022-12-09T16:40:26.181Z,25.80
2022-12-09T16:43:13.221Z,27.27
2022-12-09T16:45:40.885Z,26.77
2022-12-09T16:48:11.393Z,26.33
2022-12-09T16:50:58.158Z,27.30
2022-12-09T16:53:32.621Z,28.37
2022-12-09T16:56:02.511Z,30.20
2022-12-09T16:58:32.985Z,29.77
2022-12-09T17:01:03.159Z,31.50
2022-12-09T17:03:53.037Z,30.07
2022-12-09T17:06:20.803Z,27.03
2022-12-09T17:08:48.090Z,30.40
2022-12-09T17:11:17.025Z,30.13
2022-12-09T17:13:43.943Z,30.43
2022-12-09T17:16:10.981Z,31.00
2022-12-09T17:18:39.419Z,30.70
2022-12-09T17:21:10.443Z,29.73
2022-12-09T17:23:40.259Z,30.53
2022-12-09T17:26:10.536Z,30.20
2022-12-09T17:28:37.996Z,30.27
2022-12-09T17:31:10.160Z,30.57
2022-12-09T17:33:38.352Z,29.97
2022-12-09T17:36:07.412Z,30.17
2022-12-09T17:38:34.706Z,31.70
2022-12-09T17:41:16.159Z,30.83
2022-12-09T17:43:43.464Z,29.00
2022-12-09T17:46:11.605Z,29.20
2022-12-09T17:48:42.124Z,30.83
2022-12-09T17:51:14.804Z,30.07
2022-12-09T17:53:42.956Z,29.87
2022-12-09T17:56:15.863Z,29.17
2022-12-09T17:58:43.315Z,32.07
2022-12-09T18:01:19.641Z,33.10
2022-12-09T18:03:56.054Z,32.50
2022-12-09T18:06:27.896Z,32.43
2022-12-09T18:08:55.247Z,34.43
2022-12-09T18:11:22.599Z,34.07
2022-12-09T18:13:50.725Z,30.40
2022-12-09T18:16:18.865Z,30.40
2022-12-09T18:18:46.307Z,29.13
2022-12-09T18:21:15.889Z,30.10
2022-12-09T18:23:43.915Z,30.37
2022-12-09T18:26:15.998Z,31.53
2022-12-09T18:28:43.619Z,32.07
2022-12-09T18:31:14.337Z,30.77
2022-12-09T18:33:42.243Z,32.43
2022-12-09T18:36:10.997Z,33.03
2022-12-09T18:38:39.390Z,32.63
2022-12-09T18:41:29.221Z,33.50
2022-12-09T18:44:02.602Z,33.50
2022-12-09T18:46:33.358Z,32.47
2022-12-09T18:49:04.905Z,31.20
2022-12-09T18:51:32.944Z,32.23
2022-12-09T18:54:01.707Z,32.17
2022-12-09T18:56:29.032Z,32.63
2022-12-09T18:59:06.439Z,31.03
2022-12-09T19:01:39.352Z,29.83
2022-12-09T19:04:10.381Z,32.60
2022-12-09T19:06:39.694Z,31.93
2022-12-09T19:09:12.760Z,31.30
2022-12-09T19:11:41.664Z,28.23
2022-12-09T19:14:09.663Z,29.73
2022-12-09T19:16:37.990Z,31.27
2022-12-09T19:19:09.629Z,27.73
2022-12-09T19:21:37.580Z,29.23
2022-12-09T19:24:04.930Z,29.27
2022-12-09T19:26:34.459Z,27.10
2022-12-09T19:29:07.815Z,27.27
2022-12-09T19:31:38.040Z,29.33
2022-12-09T19:34:15.802Z,27.53
2022-12-09T19:36:44.007Z,26.03
2022-12-09T19:39:12.671Z,26.27
2022-12-09T19:41:40.585Z,26.97
2022-12-09T19:44:08.671Z,25.73
2022-12-09T19:46:36.744Z,26.10
2022-12-09T19:49:03.985Z,25.60
2022-12-09T19:51:31.090Z,24.97
2022-12-09T19:53:59.892Z,24.60
2022-12-09T19:56:27.988Z,24.20
2022-12-09T19:58:55.202Z,22.30
2022-12-09T20:01:25.065Z,21.67
2022-12-09T20:04:08.922Z,24.20
2022-12-09T20:06:46.999Z,20.70
2022-12-09T20:09:18.387Z,23.53
2022-12-09T20:11:45.768Z,22.20
2022-12-09T20:14:14.167Z,22.13
2022-12-09T20:16:41.576Z,23.17
2022-12-09T20:19:10.188Z,23.07
2022-12-09T20:21:38.151Z,22.77
2022-12-09T20:24:05.978Z,23.17
2022-12-09T20:26:35.311Z,21.23
2022-12-09T20:29:06.269Z,24.10
2022-12-09T20:31:35.223Z,21.80
2022-12-09T20:34:11.341Z,21.07
2022-12-09T20:36:40.608Z,21.83
2022-12-09T20:39:12.689Z,21.27
2022-12-09T20:41:41.922Z,22.13
2022-12-09T20:44:10.871Z,22.33
2022-12-09T20:46:40.013Z,23.33
2022-12-09T20:49:07.412Z,22.60
2022-12-09T20:51:41.150Z,22.77
2022-12-09T20:54:16.189Z,22.70
2022-12-09T20:56:44.362Z,23.57
2022-12-09T20:59:13.647Z,24.00
2022-12-09T21:01:41.672Z,23.80
2022-12-09T21:04:09.022Z,23.57
2022-12-09T21:06:39.097Z,24.27
2022-12-09T21:09:09.848Z,23.30
2022-12-09T21:11:37.988Z,23.37
2022-12-09T21:14:06.867Z,23.73
2022-12-09T21:16:37.751Z,25.10
2022-12-09T21:19:07.241Z,24.83
2022-12-09T21:21:35.829Z,24.67
2022-12-09T21:24:03.792Z,24.57
2022-12-09T21:26:30.764Z,24.47
2022-12-09T21:28:59.927Z,25.77
2022-12-09T21:31:30.618Z,24.40
2022-12-09T21:34:18.485Z,25.07
2022-12-09T21:36:45.750Z,24.50
2022-12-09T21:39:15.022Z,24.70
2022-12-09T21:41:43.945Z,23.73
2022-12-09T21:44:18.568Z,24.53
2022-12-09T21:46:46.259Z,23.40
2022-12-09T21:49:14.040Z,24.07
2022-12-09T21:51:41.184Z,24.30
2022-12-09T21:54:08.205Z,23.60
2022-12-09T21:56:36.817Z,23.07
2022-12-09T21:59:06.021Z,23.37
2022-12-09T22:01:38.506Z,22.27
2022-12-09T22:04:08.272Z,23.00
2022-12-09T22:06:35.754Z,21.50
2022-12-09T22:09:05.566Z,21.70
2022-12-09T22:11:35.832Z,21.90
2022-12-09T22:14:03.285Z,22.23
2022-12-09T22:16:43.638Z,22.43
2022-12-09T22:19:14.992Z,22.83
2022-12-09T22:21:42.245Z,21.43
2022-12-09T22:24:10.481Z,21.97
2022-12-09T22:26:37.530Z,20.87
2022-12-09T22:29:06.670Z,21.93
2022-12-09T22:31:37.026Z,21.80
2022-12-09T22:34:11.047Z,22.63
2022-12-09T22:36:38.563Z,22.83
2022-12-09T22:39:09.146Z,22.10
2022-12-09T22:41:36.241Z,21.70
2022-12-09T22:44:03.706Z,22.13
2022-12-09T22:46:33.036Z,22.50
2022-12-09T22:49:04.816Z,22.53
2022-12-09T22:51:34.667Z,22.70
2022-12-09T22:54:04.633Z,21.47
2022-12-09T22:56:32.306Z,20.60
2022-12-09T22:59:00.317Z,21.13
2022-12-09T23:01:32.862Z,21.30
2022-12-09T23:04:01.427Z,20.90
2022-12-09T23:06:32.619Z,21.03
2022-12-09T23:08:59.855Z,21.03
2022-12-09T23:11:28.209Z,21.40
2022-12-09T23:13:55.904Z,21.77
2022-12-09T23:16:24.981Z,20.67
2022-12-09T23:18:54.572Z,20.47
2022-12-09T23:21:24.491Z,20.87
2022-12-09T23:23:57.257Z,21.67
2022-12-09T23:26:26.301Z,20.20
2022-12-09T23:28:55.864Z,20.70
2022-12-09T23:31:25.426Z,20.97
2022-12-09T23:33:53.949Z,20.10
2022-12-09T23:36:45.852Z,20.10
2022-12-09T23:39:16.048Z,21.40
2022-12-09T23:41:44.851Z,19.07
2022-12-09T23:44:14.760Z,19.53
2022-12-09T23:46:42.178Z,20.20
2022-12-09T23:49:09.388Z,20.03
2022-12-09T23:51:39.898Z,20.43
2022-12-09T23:54:08.678Z,19.47
2022-12-09T23:56:39.058Z,18.10
2022-12-09T23:59:09.125Z,19.17
